createdAt,value
2019-05-01T00:02:27.879Z,99.90
2019-05-01T00:05:07.963Z,99.90
2019-05-01T00:07:39.276Z,99.90
2019-05-01T00:10:10.774Z,99.90
2019-05-01T00:12:41.771Z,99.90
2019-05-01T00:15:13.852Z,99.90
2019-05-01T00:17:45.175Z,99.90
2019-05-01T00:20:17.698Z,99.90
2019-05-01T00:22:48.868Z,99.90
2019-05-01T00:25:19.783Z,99.90
2019-05-01T00:27:51.255Z,99.90
2019-05-01T00:30:30.015Z,99.90
2019-05-01T00:32:57.452Z,99.90
2019-05-01T00:35:28.709Z,99.90
2019-05-01T00:37:59.961Z,99.90
2019-05-01T00:40:31.131Z,99.90
2019-05-01T00:43:02.655Z,99.90
2019-05-01T00:45:34.128Z,99.90
2019-05-01T00:48:05.207Z,99.90
2019-05-01T00:50:36.375Z,99.90
2019-05-01T00:53:07.380Z,99.90
2019-05-01T00:55:54.732Z,99.90
2019-05-01T00:58:43.655Z,99.90
2019-05-01T01:01:26.290Z,99.90
2019-05-01T01:03:57.991Z,99.90
2019-05-01T01:06:29.238Z,99.90
2019-05-01T01:09:00.491Z,99.90
2019-05-01T01:11:45.380Z,99.90
2019-05-01T01:14:16.814Z,99.90
2019-05-01T01:16:47.795Z,99.90
2019-05-01T01:19:19.136Z,99.90
2019-05-01T01:21:50.446Z,99.90
2019-05-01T01:24:21.824Z,99.90
2019-05-01T01:26:53.132Z,99.90
2019-05-01T01:29:24.443Z,99.90
2019-05-01T01:31:55.741Z,99.90
2019-05-01T01:34:27.791Z,99.90
2019-05-01T01:36:58.939Z,99.90
2019-05-01T01:39:30.275Z,99.90
2019-05-01T01:42:01.652Z,99.90
2019-05-01T01:44:47.427Z,99.90
2019-05-01T01:47:34.424Z,99.90
2019-05-01T01:50:06.144Z,99.90
2019-05-01T01:52:37.455Z,99.90
2019-05-01T01:55:09.186Z,99.90
2019-05-01T01:57:40.232Z,99.90
2019-05-01T02:00:14.410Z,99.90
2019-05-01T02:02:51.759Z,99.90
2019-05-01T02:05:29.647Z,99.90
2019-05-01T02:08:00.952Z,99.90
2019-05-01T02:10:42.598Z,99.90
2019-05-01T02:13:05.222Z,99.90
2019-05-01T02:15:36.455Z,99.90
2019-05-01T02:18:08.802Z,99.90
2019-05-01T02:20:40.358Z,99.90
2019-05-01T02:23:11.527Z,99.90
2019-05-01T02:25:44.230Z,99.90
2019-05-01T02:28:30.983Z,99.90
2019-05-01T02:31:29.502Z,99.90
2019-05-01T02:34:03.178Z,99.90
2019-05-01T02:36:35.349Z,99.90
2019-05-01T02:39:09.460Z,99.90
2019-05-01T02:41:43.466Z,99.90
2019-05-01T02:44:21.902Z,99.90
2019-05-01T02:46:55.644Z,99.90
2019-05-01T02:49:37.786Z,99.90
2019-05-01T02:52:11.690Z,99.90
2019-05-01T02:54:46.160Z,99.90
2019-05-01T02:57:20.659Z,99.90
2019-05-01T02:59:53.592Z,99.90
2019-05-01T03:02:27.207Z,99.90
2019-05-01T03:04:59.366Z,99.90
2019-05-01T03:07:33.760Z,99.90
2019-05-01T03:10:09.271Z,99.90
2019-05-01T03:12:41.444Z,99.90
2019-05-01T03:15:15.211Z,99.90
2019-05-01T03:18:00.180Z,99.90
2019-05-01T03:20:46.939Z,99.90
2019-05-01T03:23:22.916Z,99.90
2019-05-01T03:25:54.294Z,99.90
2019-05-01T03:28:25.624Z,99.90
2019-05-01T03:30:56.844Z,99.90
2019-05-01T03:33:31.556Z,99.90
2019-05-01T03:36:04.029Z,99.90
2019-05-01T03:38:35.565Z,99.90
2019-05-01T03:41:06.945Z,99.90
2019-05-01T03:43:38.286Z,99.90
2019-05-01T03:46:10.397Z,99.90
2019-05-01T03:48:42.383Z,99.90
2019-05-01T03:51:13.730Z,99.90
2019-05-01T03:53:44.799Z,99.90
2019-05-01T03:56:16.192Z,99.90
2019-05-01T03:58:47.613Z,99.90
2019-05-01T04:01:28.306Z,99.90
2019-05-01T04:04:07.099Z,99.90
2019-05-01T04:06:38.373Z,99.90
2019-05-01T04:09:11.195Z,99.90
2019-05-01T04:11:42.572Z,99.90
2019-05-01T04:14:13.691Z,99.90
2019-05-01T04:16:46.939Z,99.90
2019-05-01T04:19:18.750Z,99.90
2019-05-01T04:21:58.718Z,99.90
2019-05-01T04:24:29.804Z,99.90
2019-05-01T04:27:02.165Z,99.90
2019-05-01T04:29:40.340Z,99.90
2019-05-01T04:32:17.244Z,99.90
2019-05-01T04:35:16.663Z,99.90
2019-05-01T04:37:47.905Z,99.90
2019-05-01T04:40:19.703Z,99.90
2019-05-01T04:42:50.968Z,99.90
2019-05-01T04:45:24.843Z,99.90
2019-05-01T04:47:56.768Z,99.90
2019-05-01T04:50:28.319Z,99.90
2019-05-01T04:52:59.935Z,99.90
2019-05-01T04:55:32.673Z,99.90
2019-05-01T04:58:03.831Z,99.90
2019-05-01T05:00:35.419Z,99.90
2019-05-01T05:03:10.662Z,99.90
2019-05-01T05:05:41.962Z,99.90
2019-05-01T05:08:13.343Z,99.90
2019-05-01T05:10:44.418Z,99.90
2019-05-01T05:13:46.656Z,99.90
2019-05-01T05:16:22.650Z,99.90
2019-05-01T05:18:54.039Z,99.90
2019-05-01T05:21:25.166Z,99.90
2019-05-01T05:23:56.867Z,99.90
2019-05-01T05:26:28.135Z,99.90
2019-05-01T05:29:00.763Z,99.90
2019-05-01T05:31:32.807Z,99.90
2019-05-01T05:34:06.346Z,99.90
2019-05-01T05:36:39.155Z,99.90
2019-05-01T05:39:16.923Z,99.90
2019-05-01T05:41:50.803Z,99.90
2019-05-01T05:44:22.727Z,99.90
2019-05-01T05:46:54.143Z,99.90
2019-05-01T05:49:25.753Z,99.90
2019-05-01T05:52:07.647Z,99.90
2019-05-01T05:54:48.237Z,99.90
2019-05-01T05:57:25.827Z,99.90
2019-05-01T06:00:02.152Z,99.90
2019-05-01T06:02:49.087Z,99.90
2019-05-01T06:05:31.186Z,99.90
2019-05-01T06:08:11.786Z,99.90
2019-05-01T06:11:10.640Z,99.90
2019-05-01T06:14:09.574Z,99.90
2019-05-01T06:16:52.040Z,99.90
2019-05-01T06:19:32.271Z,99.90
2019-05-01T06:22:16.899Z,99.90
2019-05-01T06:24:50.886Z,99.90
2019-05-01T06:27:22.175Z,99.90
2019-05-01T06:29:53.466Z,99.90
2019-05-01T06:32:28.825Z,99.90
2019-05-01T06:34:58.494Z,99.90
2019-05-01T06:37:51.496Z,99.90
2019-05-01T06:40:38.271Z,99.90
2019-05-01T06:43:20.190Z,99.90
2019-05-01T06:45:55.288Z,99.90
2019-05-01T06:48:28.313Z,99.90
2019-05-01T06:51:18.896Z,99.90
2019-05-01T06:53:50.227Z,99.90
2019-05-01T06:56:21.278Z,99.90
2019-05-01T06:58:56.423Z,99.90
2019-05-01T07:01:28.147Z,99.90
2019-05-01T07:04:03.921Z,99.90
2019-05-01T07:06:32.987Z,99.90
2019-05-01T07:09:06.922Z,99.90
2019-05-01T07:11:42.357Z,99.90
2019-05-01T07:14:16.087Z,99.90
2019-05-01T07:16:46.806Z,99.90
2019-05-01T07:19:19.991Z,99.90
2019-05-01T07:21:51.607Z,99.90
2019-05-01T07:24:27.607Z,99.90
2019-05-01T07:26:55.923Z,99.90
2019-05-01T07:29:28.875Z,99.90
2019-05-01T07:32:01.715Z,99.90
2019-05-01T07:34:33.179Z,99.90
2019-05-01T07:37:04.948Z,99.90
2019-05-01T07:39:36.109Z,99.90
2019-05-01T07:42:27.318Z,99.90
2019-05-01T07:45:22.497Z,99.90
2019-05-01T07:47:53.791Z,99.90
2019-05-01T07:50:31.644Z,99.90
2019-05-01T07:52:59.735Z,99.90
2019-05-01T07:55:37.227Z,99.90
2019-05-01T07:58:10.208Z,99.90
2019-05-01T08:00:49.861Z,99.90
2019-05-01T08:03:21.967Z,99.90
2019-05-01T08:05:53.183Z,99.90
2019-05-01T08:08:24.583Z,99.90
2019-05-01T08:10:59.818Z,99.90
2019-05-01T08:13:30.631Z,99.90
2019-05-01T08:16:06.968Z,99.90
2019-05-01T08:18:41.499Z,99.90
2019-05-01T08:21:42.139Z,99.90
2019-05-01T08:24:18.029Z,99.90
2019-05-01T08:26:47.115Z,99.90
2019-05-01T08:29:49.577Z,99.90
2019-05-01T08:32:48.892Z,99.90
2019-05-01T08:35:22.099Z,99.90
2019-05-01T08:37:58.484Z,99.90
2019-05-01T08:40:27.700Z,99.90
2019-05-01T08:42:58.845Z,99.90
2019-05-01T08:45:58.358Z,99.50
2019-05-01T08:49:00.855Z,99.90
2019-05-01T08:51:34.891Z,99.90
2019-05-01T08:54:05.787Z,99.90
2019-05-01T08:56:36.944Z,99.90
2019-05-01T08:59:08.163Z,99.70
2019-05-01T09:01:39.542Z,99.90
2019-05-01T09:04:13.194Z,99.90
2019-05-01T09:06:43.920Z,99.80
2019-05-01T09:09:16.371Z,99.50
2019-05-01T09:11:47.531Z,99.70
2019-05-01T09:14:18.624Z,99.80
2019-05-01T09:16:52.293Z,99.90
2019-05-01T09:19:22.551Z,99.70
2019-05-01T09:21:54.076Z,99.20
2019-05-01T09:24:27.952Z,98.90
2019-05-01T09:27:23.722Z,98.80
2019-05-01T09:29:55.439Z,98.60
2019-05-01T09:32:28.774Z,98.90
2019-05-01T09:34:59.991Z,98.90
2019-05-01T09:37:31.235Z,98.30
2019-05-01T09:40:04.210Z,98.50
2019-05-01T09:42:36.939Z,98.50
2019-05-01T09:45:08.864Z,98.10
2019-05-01T09:47:40.113Z,98.30
2019-05-01T09:50:11.411Z,98.40
2019-05-01T09:52:59.838Z,97.50
2019-05-01T09:55:44.942Z,97.40
2019-05-01T09:58:16.101Z,96.60
2019-05-01T10:00:48.858Z,96.90
2019-05-01T10:03:20.171Z,98.10
2019-05-01T10:05:51.107Z,97.40
2019-05-01T10:08:22.340Z,98.00
2019-05-01T10:10:55.068Z,97.40
2019-05-01T10:13:26.210Z,97.60
2019-05-01T10:15:57.281Z,97.00
2019-05-01T10:18:29.409Z,97.10
2019-05-01T10:21:00.399Z,97.60
2019-05-01T10:23:31.539Z,97.40
2019-05-01T10:26:04.339Z,97.00
2019-05-01T10:28:50.114Z,97.00
2019-05-01T10:31:46.573Z,97.10
2019-05-01T10:34:31.881Z,96.80
2019-05-01T10:37:03.055Z,96.50
2019-05-01T10:39:34.231Z,96.90
2019-05-01T10:42:05.224Z,97.00
2019-05-01T10:44:36.372Z,97.20
2019-05-01T10:47:07.289Z,96.40
2019-05-01T10:49:38.515Z,97.00
2019-05-01T10:52:14.276Z,96.30
2019-05-01T10:54:42.424Z,96.30
2019-05-01T10:57:13.700Z,95.90
2019-05-01T10:59:44.934Z,95.70
2019-05-01T11:02:17.870Z,96.10
2019-05-01T11:04:48.792Z,96.70
2019-05-01T11:07:20.061Z,95.70
2019-05-01T11:09:51.528Z,96.20
2019-05-01T11:12:23.980Z,96.60
2019-05-01T11:14:54.888Z,96.30
2019-05-01T11:17:26.053Z,95.70
2019-05-01T11:19:57.544Z,96.60
2019-05-01T11:22:28.529Z,96.30
2019-05-01T11:24:59.515Z,95.80
2019-05-01T11:27:30.992Z,95.90
2019-05-01T11:30:02.407Z,96.40
2019-05-01T11:33:01.651Z,96.90
2019-05-01T11:35:50.450Z,96.40
2019-05-01T11:38:43.492Z,95.40
2019-05-01T11:41:22.365Z,95.80
2019-05-01T11:43:53.534Z,96.40
2019-05-01T11:46:24.823Z,95.60
2019-05-01T11:48:55.996Z,96.20
2019-05-01T11:51:27.178Z,95.70
2019-05-01T11:53:58.328Z,96.70
2019-05-01T11:56:29.228Z,96.10
2019-05-01T11:59:00.712Z,95.10
2019-05-01T12:01:31.879Z,95.30
2019-05-01T12:04:02.791Z,95.60
2019-05-01T12:06:45.788Z,95.30
2019-05-01T12:09:18.911Z,95.00
2019-05-01T12:11:51.914Z,95.40
2019-05-01T12:14:22.894Z,95.30
2019-05-01T12:17:05.471Z,95.80
2019-05-01T12:19:36.373Z,95.60
2019-05-01T12:22:07.520Z,95.20
2019-05-01T12:24:40.151Z,95.30
2019-05-01T12:27:11.871Z,95.30
2019-05-01T12:29:43.091Z,95.40
2019-05-01T12:32:14.248Z,95.50
2019-05-01T12:34:45.400Z,95.90
2019-05-01T12:37:33.067Z,96.00
2019-05-01T12:40:06.994Z,95.80
2019-05-01T12:42:38.807Z,95.70
2019-05-01T12:45:10.716Z,95.40
2019-05-01T12:48:00.543Z,95.00
2019-05-01T12:50:31.599Z,95.60
2019-05-01T12:53:17.811Z,95.50
2019-05-01T12:56:04.120Z,95.20
2019-05-01T12:58:36.804Z,95.30
2019-05-01T13:01:09.423Z,96.40
2019-05-01T13:03:40.621Z,96.10
2019-05-01T13:06:14.292Z,95.00
2019-05-01T13:08:44.407Z,95.90
2019-05-01T13:11:15.830Z,94.20
2019-05-01T13:13:47.047Z,94.20
2019-05-01T13:16:18.197Z,95.20
2019-05-01T13:18:52.851Z,94.90
2019-05-01T13:21:23.787Z,95.70
2019-05-01T13:23:55.188Z,95.60
2019-05-01T13:26:37.748Z,96.40
2019-05-01T13:29:26.237Z,95.20
2019-05-01T13:32:16.575Z,95.20
2019-05-01T13:34:49.655Z,95.10
2019-05-01T13:37:20.973Z,94.90
2019-05-01T13:39:52.287Z,95.40
2019-05-01T13:42:23.428Z,95.00
2019-05-01T13:44:54.639Z,95.80
2019-05-01T13:47:25.973Z,94.80
2019-05-01T13:49:57.139Z,95.10
2019-05-01T13:52:28.295Z,95.10
2019-05-01T13:54:59.613Z,95.00
2019-05-01T13:57:30.759Z,95.90
2019-05-01T14:00:01.917Z,95.80
2019-05-01T14:02:34.659Z,96.00
2019-05-01T14:05:06.303Z,95.70
2019-05-01T14:07:39.224Z,96.50
2019-05-01T14:10:10.330Z,95.30
2019-05-01T14:12:41.783Z,95.00
2019-05-01T14:15:13.095Z,94.90
2019-05-01T14:17:51.793Z,95.40
2019-05-01T14:20:39.422Z,96.20
2019-05-01T14:23:21.319Z,96.20
2019-05-01T14:26:05.250Z,96.20
2019-05-01T14:28:36.665Z,95.80
2019-05-01T14:31:07.573Z,96.00
2019-05-01T14:33:38.726Z,95.90
2019-05-01T14:36:09.976Z,95.40
2019-05-01T14:38:41.194Z,95.70
2019-05-01T14:41:12.381Z,95.90
2019-05-01T14:43:43.556Z,96.00
2019-05-01T14:46:15.407Z,96.20
2019-05-01T14:48:46.576Z,96.80
2019-05-01T14:51:17.739Z,96.80
2019-05-01T14:53:49.165Z,96.50
2019-05-01T14:56:21.166Z,96.30
2019-05-01T14:58:52.074Z,96.60
2019-05-01T15:01:23.227Z,97.30
2019-05-01T15:03:54.551Z,95.60
2019-05-01T15:06:25.783Z,96.00
2019-05-01T15:08:56.940Z,96.50
2019-05-01T15:11:28.179Z,95.80
2019-05-01T15:14:24.730Z,95.80
2019-05-01T15:17:15.047Z,95.40
2019-05-01T15:19:51.021Z,95.80
2019-05-01T15:22:22.438Z,95.50
2019-05-01T15:24:53.616Z,95.60
2019-05-01T15:27:24.904Z,96.20
2019-05-01T15:29:55.800Z,95.60
2019-05-01T15:32:26.729Z,95.30
2019-05-01T15:34:59.071Z,95.40
2019-05-01T15:37:30.227Z,95.60
2019-05-01T15:40:05.768Z,96.00
2019-05-01T15:42:44.447Z,95.70
2019-05-01T15:45:15.745Z,95.80
2019-05-01T15:47:50.375Z,95.70
2019-05-01T15:50:23.053Z,95.60
2019-05-01T15:52:53.971Z,96.90
2019-05-01T15:55:25.139Z,96.00
2019-05-01T15:57:57.623Z,95.20
2019-05-01T16:00:28.823Z,96.40
2019-05-01T16:02:59.979Z,96.40
2019-05-01T16:05:30.960Z,96.50
2019-05-01T16:08:09.424Z,96.20
2019-05-01T16:10:39.627Z,96.70
2019-05-01T16:13:10.839Z,96.00
2019-05-01T16:15:42.177Z,96.00
2019-05-01T16:18:13.339Z,96.50
2019-05-01T16:20:44.493Z,95.60
2019-05-01T16:23:15.715Z,95.60
2019-05-01T16:25:47.163Z,95.80
2019-05-01T16:28:19.475Z,96.00
2019-05-01T16:30:50.654Z,96.00
2019-05-01T16:33:21.594Z,96.00
2019-05-01T16:35:52.731Z,96.00
2019-05-01T16:38:30.982Z,96.40
2019-05-01T16:41:05.604Z,96.60
2019-05-01T16:43:37.149Z,96.70
2019-05-01T16:46:22.063Z,95.90
2019-05-01T16:48:53.310Z,96.40
2019-05-01T16:51:24.327Z,96.60
2019-05-01T16:53:55.355Z,96.80
2019-05-01T16:56:26.320Z,96.70
2019-05-01T16:58:58.507Z,96.90
2019-05-01T17:01:48.820Z,96.80
2019-05-01T17:04:35.455Z,96.90
2019-05-01T17:07:23.148Z,97.00
2019-05-01T17:10:14.850Z,97.60
2019-05-01T17:12:47.703Z,97.10
2019-05-01T17:15:25.901Z,97.50
2019-05-01T17:17:56.826Z,96.90
2019-05-01T17:20:28.240Z,97.20
2019-05-01T17:22:59.408Z,97.40
2019-05-01T17:25:31.279Z,97.50
2019-05-01T17:28:03.048Z,97.40
2019-05-01T17:30:40.513Z,97.50
2019-05-01T17:33:20.070Z,97.20
2019-05-01T17:35:44.780Z,97.40
2019-05-01T17:38:16.328Z,97.60
2019-05-01T17:40:52.165Z,97.50
2019-05-01T17:43:21.542Z,97.60
2019-05-01T17:45:53.201Z,97.70
2019-05-01T17:48:28.751Z,97.80
2019-05-01T17:51:00.146Z,97.60
2019-05-01T17:53:30.763Z,97.70
2019-05-01T17:56:02.359Z,97.30
2019-05-01T17:58:33.375Z,97.30
2019-05-01T18:01:27.548Z,97.50
2019-05-01T18:04:14.871Z,97.80
2019-05-01T18:06:48.139Z,97.80
2019-05-01T18:09:19.368Z,97.90
2019-05-01T18:11:52.087Z,98.20
2019-05-01T18:14:22.959Z,98.30
2019-05-01T18:16:54.543Z,98.60
2019-05-01T18:19:25.735Z,98.60
2019-05-01T18:22:32.178Z,98.70
2019-05-01T18:25:19.495Z,98.70
2019-05-01T18:27:59.277Z,98.70
2019-05-01T18:30:35.907Z,98.70
2019-05-01T18:33:07.151Z,99.00
2019-05-01T18:35:38.203Z,99.10
2019-05-01T18:38:22.603Z,99.00
2019-05-01T18:40:58.188Z,99.10
2019-05-01T18:43:32.169Z,99.30
2019-05-01T18:46:03.561Z,99.10
2019-05-01T18:48:34.862Z,99.40
2019-05-01T18:51:05.841Z,99.30
2019-05-01T18:53:37.000Z,99.50
2019-05-01T18:56:08.219Z,99.50
2019-05-01T18:58:39.124Z,99.60
2019-05-01T19:01:10.865Z,99.50
2019-05-01T19:03:44.064Z,99.60
2019-05-01T19:06:20.989Z,99.60
2019-05-01T19:08:52.151Z,99.70
2019-05-01T19:11:25.223Z,99.80
2019-05-01T19:13:56.359Z,99.90
2019-05-01T19:16:27.595Z,99.90
2019-05-01T19:18:58.647Z,99.90
2019-05-01T19:21:35.568Z,99.90
2019-05-01T19:24:06.893Z,99.90
2019-05-01T19:26:44.143Z,99.90
2019-05-01T19:29:15.242Z,99.90
2019-05-01T19:31:46.134Z,99.90
2019-05-01T19:34:18.907Z,99.90
2019-05-01T19:36:51.470Z,99.90
2019-05-01T19:39:23.275Z,99.90
2019-05-01T19:41:54.741Z,99.90
2019-05-01T19:44:26.299Z,99.90
2019-05-01T19:46:57.528Z,99.90
2019-05-01T19:49:29.787Z,99.90
2019-05-01T19:52:02.028Z,99.90
2019-05-01T19:54:34.094Z,99.90
2019-05-01T19:57:05.392Z,99.90
2019-05-01T19:59:36.325Z,99.90
2019-05-01T20:02:07.594Z,99.90
2019-05-01T20:04:38.782Z,99.90
2019-05-01T20:07:10.500Z,99.90
2019-05-01T20:09:50.390Z,99.90
2019-05-01T20:12:15.755Z,99.90
2019-05-01T20:14:46.927Z,99.90
2019-05-01T20:17:17.951Z,99.90
2019-05-01T20:19:49.178Z,99.90
2019-05-01T20:22:20.579Z,99.90
2019-05-01T20:24:51.763Z,99.90
2019-05-01T20:27:22.894Z,99.90
2019-05-01T20:29:54.123Z,99.90
2019-05-01T20:32:26.354Z,99.90
2019-05-01T20:34:59.481Z,99.90
2019-05-01T20:37:30.731Z,99.90
2019-05-01T20:40:10.774Z,99.90
2019-05-01T20:42:34.723Z,99.90
2019-05-01T20:45:12.810Z,99.90
2019-05-01T20:47:45.127Z,99.90
2019-05-01T20:50:14.104Z,99.90
2019-05-01T20:52:45.152Z,99.90
2019-05-01T20:55:16.312Z,99.90
2019-05-01T20:57:48.337Z,99.90
2019-05-01T21:00:20.396Z,99.90
2019-05-01T21:02:51.532Z,99.90
2019-05-01T21:05:31.455Z,99.90
2019-05-01T21:08:15.050Z,99.90
2019-05-01T21:11:11.239Z,99.90
2019-05-01T21:13:41.467Z,99.90
2019-05-01T21:16:12.399Z,99.90
2019-05-01T21:18:43.315Z,99.90
2019-05-01T21:21:14.270Z,99.90
2019-05-01T21:23:48.158Z,99.90
2019-05-01T21:26:18.415Z,99.90
2019-05-01T21:28:49.571Z,99.90
2019-05-01T21:31:20.724Z,99.90
2019-05-01T21:33:53.476Z,99.90
2019-05-01T21:36:24.299Z,99.90
2019-05-01T21:38:55.431Z,99.90
2019-05-01T21:41:26.323Z,99.90
2019-05-01T21:43:57.463Z,99.90
2019-05-01T21:46:28.898Z,99.90
2019-05-01T21:48:59.829Z,99.90
2019-05-01T21:51:32.731Z,99.90
2019-05-01T21:54:05.267Z,99.90
2019-05-01T21:56:36.958Z,99.90
2019-05-01T21:59:09.298Z,99.90
2019-05-01T22:01:40.703Z,99.90
2019-05-01T22:04:11.710Z,99.90
2019-05-01T22:06:46.906Z,99.90
2019-05-01T22:09:19.778Z,99.90
2019-05-01T22:11:51.119Z,99.90
2019-05-01T22:14:36.123Z,99.90
2019-05-01T22:17:13.137Z,99.90
2019-05-01T22:19:44.355Z,99.90
2019-05-01T22:22:38.858Z,99.90
2019-05-01T22:25:19.795Z,99.90
2019-05-01T22:27:56.031Z,99.90
2019-05-01T22:30:42.237Z,99.90
2019-05-01T22:33:13.455Z,99.90
2019-05-01T22:35:51.947Z,99.90
2019-05-01T22:38:23.178Z,99.90
2019-05-01T22:41:06.477Z,99.90
2019-05-01T22:43:32.636Z,99.90
2019-05-01T22:46:04.892Z,99.90
2019-05-01T22:48:37.107Z,99.90
2019-05-01T22:51:26.891Z,99.90
2019-05-01T22:53:58.134Z,99.90
2019-05-01T22:56:30.182Z,99.90
2019-05-01T22:59:01.331Z,99.90
2019-05-01T23:01:33.559Z,99.90
2019-05-01T23:04:06.436Z,99.90
2019-05-01T23:06:41.775Z,99.90
2019-05-01T23:09:12.938Z,99.90
2019-05-01T23:11:46.830Z,99.90
2019-05-01T23:14:18.946Z,99.90
2019-05-01T23:16:58.682Z,99.90
2019-05-01T23:19:31.620Z,99.90
2019-05-01T23:22:02.807Z,99.90
2019-05-01T23:24:35.471Z,99.90
2019-05-01T23:27:06.962Z,99.90
2019-05-01T23:29:38.158Z,99.90
2019-05-01T23:32:09.246Z,99.90
2019-05-01T23:34:40.428Z,99.90
2019-05-01T23:37:11.934Z,99.90
2019-05-01T23:39:43.079Z,99.90
2019-05-01T23:42:14.115Z,99.90
2019-05-01T23:44:45.274Z,99.90
2019-05-01T23:47:16.431Z,99.90
2019-05-01T23:49:52.611Z,99.90
2019-05-01T23:52:23.441Z,99.90
2019-05-01T23:54:55.623Z,99.90
2019-05-01T23:57:27.023Z,99.90
